createdAt,value
2023-02-16T00:01:26.868Z,88.73
2023-02-16T00:03:56.085Z,103.83
2023-02-16T00:06:24.700Z,94.93
2023-02-16T00:08:54.497Z,91.07
2023-02-16T00:11:43.872Z,85.97
2023-02-16T00:14:14.141Z,95.67
2023-02-16T00:16:42.735Z,89.37
2023-02-16T00:19:18.883Z,95.33
2023-02-16T00:21:46.965Z,86.37
2023-02-16T00:24:14.964Z,95.23
2023-02-16T00:26:44.205Z,89.53
2023-02-16T00:29:19.556Z,93.83
2023-02-16T00:31:47.952Z,96.63
2023-02-16T00:34:37.262Z,83.50
2023-02-16T00:37:07.673Z,84.43
2023-02-16T00:39:35.883Z,85.93
2023-02-16T00:42:06.622Z,88.87
2023-02-16T00:44:40.952Z,88.67
2023-02-16T00:47:19.496Z,80.67
2023-02-16T00:49:47.541Z,86.40
2023-02-16T00:52:29.726Z,84.07
2023-02-16T00:54:57.947Z,83.73
2023-02-16T00:57:27.156Z,84.97
2023-02-16T01:00:01.538Z,88.77
2023-02-16T01:02:30.682Z,83.67
2023-02-16T01:04:58.577Z,85.90
2023-02-16T01:07:43.701Z,89.23
2023-02-16T01:10:30.529Z,82.87
2023-02-16T01:12:58.441Z,90.63
2023-02-16T01:15:30.220Z,92.13
2023-02-16T01:18:00.801Z,93.70
2023-02-16T01:20:29.359Z,94.93
2023-02-16T01:22:57.495Z,99.50
2023-02-16T01:25:25.442Z,92.93
2023-02-16T01:27:54.425Z,93.77
2023-02-16T01:30:23.951Z,86.83
2023-02-16T01:32:53.673Z,103.73
2023-02-16T01:35:23.716Z,100.60
2023-02-16T01:37:52.030Z,106.30
2023-02-16T01:40:29.876Z,111.53
2023-02-16T01:43:03.031Z,108.23
2023-02-16T01:45:35.364Z,96.93
2023-02-16T01:48:07.602Z,102.40
2023-02-16T01:50:45.485Z,94.50
2023-02-16T01:53:21.998Z,94.70
2023-02-16T01:55:56.092Z,85.13
2023-02-16T01:58:32.695Z,88.73
2023-02-16T02:01:37.923Z,104.37
2023-02-16T02:04:32.109Z,93.60
2023-02-16T02:07:00.021Z,97.77
2023-02-16T02:09:36.243Z,100.10
2023-02-16T02:12:11.839Z,81.80
2023-02-16T02:14:41.161Z,109.63
2023-02-16T02:17:13.297Z,105.93
2023-02-16T02:19:51.956Z,99.40
2023-02-16T02:23:16.821Z,100.93
2023-02-16T02:26:10.352Z,100.97
2023-02-16T02:28:48.381Z,89.23
2023-02-16T02:31:28.703Z,107.03
2023-02-16T02:34:05.496Z,96.83
2023-02-16T02:36:40.982Z,100.53
2023-02-16T02:39:23.579Z,97.33
2023-02-16T02:42:07.162Z,95.37
2023-02-16T02:44:50.191Z,93.90
2023-02-16T02:47:18.335Z,90.30
2023-02-16T02:49:51.493Z,88.80
2023-02-16T02:52:20.212Z,102.20
2023-02-16T02:55:07.590Z,99.27
2023-02-16T02:57:58.302Z,106.07
2023-02-16T03:00:44.702Z,93.63
2023-02-16T03:03:17.828Z,109.77
2023-02-16T03:05:52.034Z,99.77
2023-02-16T03:08:24.362Z,112.67
2023-02-16T03:11:14.309Z,104.83
2023-02-16T03:13:47.446Z,111.70
2023-02-16T03:16:24.757Z,112.00
2023-02-16T03:19:10.879Z,112.73
2023-02-16T03:21:57.195Z,111.77
2023-02-16T03:24:46.369Z,105.00
2023-02-16T03:27:35.432Z,100.30
2023-02-16T03:30:05.699Z,106.20
2023-02-16T03:32:35.535Z,105.63
2023-02-16T03:35:03.669Z,105.40
2023-02-16T03:37:31.840Z,111.50
2023-02-16T03:40:17.626Z,107.20
2023-02-16T03:42:50.389Z,82.17
2023-02-16T03:45:18.659Z,99.73
2023-02-16T03:47:47.987Z,98.90
2023-02-16T03:50:16.449Z,102.47
2023-02-16T03:52:44.350Z,99.77
2023-02-16T03:55:12.286Z,106.50
2023-02-16T03:57:40.325Z,96.70
2023-02-16T04:00:09.525Z,102.37
2023-02-16T04:02:44.434Z,94.83
2023-02-16T04:05:13.711Z,98.13
2023-02-16T04:07:41.666Z,87.63
2023-02-16T04:10:10.102Z,93.03
2023-02-16T04:12:37.157Z,90.80
2023-02-16T04:15:07.189Z,105.63
2023-02-16T04:17:35.226Z,102.40
2023-02-16T04:20:03.131Z,95.03
2023-02-16T04:22:32.350Z,108.00
2023-02-16T04:25:00.275Z,92.03
2023-02-16T04:27:28.202Z,97.63
2023-02-16T04:29:56.193Z,96.77
2023-02-16T04:32:24.154Z,96.63
2023-02-16T04:34:52.072Z,99.07
2023-02-16T04:37:20.047Z,98.57
2023-02-16T04:39:49.334Z,108.70
2023-02-16T04:42:17.257Z,105.87
2023-02-16T04:44:45.799Z,108.47
2023-02-16T04:47:13.683Z,100.93
2023-02-16T04:49:41.579Z,100.40
2023-02-16T04:52:09.990Z,103.57
2023-02-16T04:54:37.848Z,104.10
2023-02-16T04:57:07.098Z,113.30
2023-02-16T04:59:35.115Z,114.40
2023-02-16T05:02:03.486Z,108.60
2023-02-16T05:04:31.953Z,109.43
2023-02-16T05:07:00.344Z,108.73
2023-02-16T05:09:28.287Z,113.17
2023-02-16T05:12:13.478Z,118.73
2023-02-16T05:14:42.711Z,103.30
2023-02-16T05:17:11.402Z,117.27
2023-02-16T05:19:39.512Z,111.63
2023-02-16T05:22:07.414Z,109.47
2023-02-16T05:24:36.007Z,119.97
2023-02-16T05:27:04.529Z,115.63
2023-02-16T05:29:32.484Z,108.07
2023-02-16T05:32:04.386Z,121.67
2023-02-16T05:34:32.684Z,111.93
2023-02-16T05:37:00.570Z,109.17
2023-02-16T05:39:28.773Z,111.53
2023-02-16T05:41:56.742Z,117.77
2023-02-16T05:44:24.820Z,119.13
2023-02-16T05:46:52.776Z,126.53
2023-02-16T05:49:22.020Z,123.47
2023-02-16T05:51:49.954Z,114.23
2023-02-16T05:54:18.150Z,128.67
2023-02-16T05:56:46.832Z,128.27
2023-02-16T05:59:16.001Z,116.43
2023-02-16T06:01:45.174Z,126.10
2023-02-16T06:04:14.842Z,128.30
2023-02-16T06:06:44.943Z,121.87
2023-02-16T06:09:13.352Z,127.43
2023-02-16T06:11:41.502Z,117.10
2023-02-16T06:14:11.550Z,122.87
2023-02-16T06:16:41.601Z,120.10
2023-02-16T06:19:10.457Z,126.47
2023-02-16T06:21:39.349Z,125.67
2023-02-16T06:24:10.545Z,132.50
2023-02-16T06:26:38.884Z,121.93
2023-02-16T06:29:07.503Z,119.90
2023-02-16T06:31:36.774Z,136.73
2023-02-16T06:34:05.844Z,133.53
2023-02-16T06:36:34.256Z,126.07
2023-02-16T06:39:02.175Z,131.10
2023-02-16T06:41:37.834Z,126.47
2023-02-16T06:44:08.154Z,131.80
2023-02-16T06:46:36.225Z,132.47
2023-02-16T06:49:04.642Z,143.23
2023-02-16T06:51:33.066Z,140.33
2023-02-16T06:54:01.020Z,138.50
2023-02-16T06:56:29.047Z,132.73
2023-02-16T06:58:58.255Z,147.00
2023-02-16T07:01:26.347Z,136.53
2023-02-16T07:03:56.503Z,138.97
2023-02-16T07:06:26.681Z,147.13
2023-02-16T07:08:54.983Z,146.70
2023-02-16T07:11:23.643Z,145.03
2023-02-16T07:13:52.250Z,137.43
2023-02-16T07:16:21.741Z,149.83
2023-02-16T07:18:49.857Z,137.97
2023-02-16T07:21:17.977Z,152.47
2023-02-16T07:23:45.885Z,140.30
2023-02-16T07:26:13.894Z,159.90
2023-02-16T07:28:41.892Z,141.60
2023-02-16T07:31:11.511Z,159.17
2023-02-16T07:33:41.575Z,157.60
2023-02-16T07:36:11.076Z,147.60
2023-02-16T07:38:41.883Z,154.97
2023-02-16T07:41:10.605Z,150.10
2023-02-16T07:43:42.669Z,141.40
2023-02-16T07:46:10.900Z,146.73
2023-02-16T07:48:40.337Z,143.93
2023-02-16T07:51:08.481Z,138.27
2023-02-16T07:53:36.512Z,142.23
2023-02-16T07:56:04.790Z,136.57
2023-02-16T07:58:32.759Z,140.27
2023-02-16T08:01:09.127Z,153.80
2023-02-16T08:03:37.066Z,142.53
2023-02-16T08:06:07.493Z,143.33
2023-02-16T08:08:40.727Z,138.33
2023-02-16T08:11:13.066Z,142.57
2023-02-16T08:13:41.291Z,149.67
2023-02-16T08:16:10.119Z,142.77
2023-02-16T08:18:38.616Z,130.97
2023-02-16T08:21:14.809Z,143.17
2023-02-16T08:23:47.522Z,141.57
2023-02-16T08:26:18.150Z,145.40
2023-02-16T08:28:47.107Z,144.50
2023-02-16T08:31:16.942Z,132.40
2023-02-16T08:33:45.081Z,145.83
2023-02-16T08:36:19.698Z,141.50
2023-02-16T08:38:50.422Z,137.63
2023-02-16T08:41:18.831Z,134.07
2023-02-16T08:43:47.108Z,137.27
2023-02-16T08:46:15.448Z,123.00
2023-02-16T08:48:45.179Z,130.67
2023-02-16T08:51:15.702Z,138.27
2023-02-16T08:53:45.556Z,129.77
2023-02-16T08:56:14.302Z,126.50
2023-02-16T08:58:44.544Z,116.77
2023-02-16T09:01:13.966Z,115.87
2023-02-16T09:03:43.246Z,116.33
2023-02-16T09:06:13.222Z,116.80
2023-02-16T09:08:42.053Z,114.93
2023-02-16T09:11:15.464Z,103.73
2023-02-16T09:13:44.693Z,107.43
2023-02-16T09:16:16.392Z,108.73
2023-02-16T09:18:45.918Z,98.60
2023-02-16T09:21:16.272Z,98.50
2023-02-16T09:23:48.099Z,100.07
2023-02-16T09:26:19.244Z,100.10
2023-02-16T09:28:48.631Z,101.43
2023-02-16T09:31:23.697Z,101.33
2023-02-16T09:33:51.727Z,97.33
2023-02-16T09:36:19.751Z,99.17
2023-02-16T09:38:49.037Z,93.07
2023-02-16T09:41:27.023Z,86.87
2023-02-16T09:44:00.792Z,86.90
2023-02-16T09:46:31.863Z,92.30
2023-02-16T09:49:03.759Z,83.93
2023-02-16T09:51:37.381Z,88.37
2023-02-16T09:54:21.291Z,85.80
2023-02-16T09:56:58.755Z,91.57
2023-02-16T09:59:38.207Z,86.80
2023-02-16T10:02:23.564Z,86.37
2023-02-16T10:05:03.264Z,78.83
2023-02-16T10:07:41.332Z,86.03
2023-02-16T10:10:12.127Z,83.50
2023-02-16T10:12:44.737Z,77.03
2023-02-16T10:15:16.836Z,78.10
2023-02-16T10:17:49.024Z,78.60
2023-02-16T10:20:20.539Z,82.90
2023-02-16T10:22:52.538Z,81.97
2023-02-16T10:25:26.296Z,85.07
2023-02-16T10:28:05.965Z,85.37
2023-02-16T10:30:34.095Z,79.73
2023-02-16T10:33:15.484Z,78.23
2023-02-16T10:35:47.901Z,76.67
2023-02-16T10:38:24.337Z,75.80
2023-02-16T10:40:58.797Z,77.30
2023-02-16T10:43:42.844Z,70.67
2023-02-16T10:46:12.690Z,79.50
2023-02-16T10:48:40.785Z,74.97
2023-02-16T10:51:12.710Z,72.57
2023-02-16T10:53:44.788Z,68.63
2023-02-16T10:56:39.804Z,78.33
2023-02-16T10:59:15.832Z,68.57
2023-02-16T11:01:46.394Z,75.17
2023-02-16T11:04:37.443Z,72.33
2023-02-16T11:07:08.508Z,68.67
2023-02-16T11:09:37.168Z,69.03
2023-02-16T11:12:17.207Z,75.50
2023-02-16T11:14:52.335Z,70.17
2023-02-16T11:17:23.453Z,73.17
2023-02-16T11:19:54.622Z,73.97
2023-02-16T11:22:28.678Z,72.03
2023-02-16T11:24:56.988Z,69.50
2023-02-16T11:27:26.002Z,67.90
2023-02-16T11:30:22.260Z,73.63
2023-02-16T11:32:51.307Z,72.27
2023-02-16T11:35:19.546Z,70.57
2023-02-16T11:37:47.689Z,69.30
2023-02-16T11:40:23.577Z,60.53
2023-02-16T11:42:53.405Z,64.37
2023-02-16T11:45:31.335Z,65.67
2023-02-16T11:48:03.869Z,69.00
2023-02-16T11:50:33.521Z,71.60
2023-02-16T11:53:16.604Z,65.83
2023-02-16T11:55:46.737Z,63.03
2023-02-16T11:58:19.846Z,67.60
2023-02-16T12:01:00.288Z,62.30
2023-02-16T12:03:54.900Z,64.37
2023-02-16T12:06:38.018Z,65.77
2023-02-16T12:09:18.979Z,66.60
2023-02-16T12:11:57.105Z,64.70
2023-02-16T12:14:42.363Z,65.27
2023-02-16T12:17:27.857Z,63.27
2023-02-16T12:20:03.748Z,55.37
2023-02-16T12:22:40.927Z,60.23
2023-02-16T12:25:27.887Z,60.20
2023-02-16T12:28:01.800Z,60.07
2023-02-16T12:30:39.232Z,54.33
2023-02-16T12:33:23.281Z,64.50
2023-02-16T12:36:33.227Z,65.60
2023-02-16T12:39:12.117Z,59.13
2023-02-16T12:41:49.699Z,60.87
2023-02-16T12:44:22.107Z,55.90
2023-02-16T12:46:57.020Z,54.53
2023-02-16T12:49:30.772Z,59.20
2023-02-16T12:52:05.470Z,55.83
2023-02-16T12:54:39.642Z,58.57
2023-02-16T12:57:13.409Z,62.87
2023-02-16T12:59:47.057Z,58.27
2023-02-16T13:02:19.140Z,62.10
2023-02-16T13:04:51.623Z,56.17
2023-02-16T13:07:26.082Z,57.80
2023-02-16T13:09:59.772Z,59.50
2023-02-16T13:12:32.631Z,60.93
2023-02-16T13:15:07.921Z,57.67
2023-02-16T13:17:40.069Z,59.93
2023-02-16T13:20:16.789Z,55.23
2023-02-16T13:23:22.237Z,56.20
2023-02-16T13:26:10.608Z,59.43
2023-02-16T13:28:58.444Z,62.17
2023-02-16T13:31:41.146Z,55.77
2023-02-16T13:34:45.162Z,56.53
2023-02-16T13:37:39.048Z,60.53
2023-02-16T13:40:39.823Z,55.90
2023-02-16T13:43:22.357Z,58.40
2023-02-16T13:45:54.062Z,60.70
2023-02-16T13:48:25.477Z,57.97
2023-02-16T13:50:59.590Z,57.87
2023-02-16T13:53:34.609Z,62.03
2023-02-16T13:56:24.074Z,53.70
2023-02-16T13:58:53.445Z,63.20
2023-02-16T14:01:43.074Z,59.33
2023-02-16T14:04:38.653Z,61.93
2023-02-16T14:07:32.082Z,62.60
2023-02-16T14:10:01.308Z,60.07
2023-02-16T14:12:34.237Z,61.50
2023-02-16T14:15:04.575Z,67.00
2023-02-16T14:17:35.212Z,61.43
2023-02-16T14:20:06.245Z,65.03
2023-02-16T14:22:40.627Z,64.83
2023-02-16T14:25:39.519Z,62.50
2023-02-16T14:28:46.323Z,67.67
2023-02-16T14:31:18.688Z,63.60
2023-02-16T14:33:53.477Z,74.50
2023-02-16T14:36:24.223Z,66.63
2023-02-16T14:38:53.633Z,69.43
2023-02-16T14:41:32.242Z,62.07
2023-02-16T14:44:32.229Z,63.43
2023-02-16T14:47:14.151Z,68.17
2023-02-16T14:50:05.562Z,70.37
2023-02-16T14:53:08.138Z,69.90
2023-02-16T14:56:01.425Z,65.73
2023-02-16T14:58:37.385Z,65.90
2023-02-16T15:01:11.983Z,66.37
2023-02-16T15:03:45.275Z,73.93
2023-02-16T15:06:22.254Z,69.03
2023-02-16T15:08:58.172Z,70.10
2023-02-16T15:11:31.633Z,71.87
2023-02-16T15:14:11.076Z,68.83
2023-02-16T15:16:41.632Z,72.93
2023-02-16T15:19:16.469Z,71.17
2023-02-16T15:21:44.753Z,69.10
2023-02-16T15:24:23.867Z,73.63
2023-02-16T15:27:01.495Z,73.67
2023-02-16T15:29:31.285Z,71.37
2023-02-16T15:32:02.062Z,68.40
2023-02-16T15:34:34.736Z,71.40
2023-02-16T15:37:20.604Z,70.35
2023-02-16T15:40:06.281Z,73.03
2023-02-16T15:42:37.387Z,71.20
2023-02-16T15:45:32.532Z,70.80
2023-02-16T15:48:26.518Z,71.30
2023-02-16T15:50:58.395Z,69.57
2023-02-16T15:53:35.913Z,80.13
2023-02-16T15:56:06.953Z,73.53
2023-02-16T15:58:35.840Z,77.07
2023-02-16T16:01:05.615Z,75.80
2023-02-16T16:03:34.075Z,72.73
2023-02-16T16:06:06.130Z,73.93
2023-02-16T16:08:34.666Z,78.90
2023-02-16T16:11:03.091Z,80.23
2023-02-16T16:13:32.732Z,77.37
2023-02-16T16:16:04.702Z,76.80
2023-02-16T16:18:46.098Z,83.37
2023-02-16T16:21:24.422Z,77.80
2023-02-16T16:23:57.608Z,84.90
2023-02-16T16:26:26.124Z,75.93
2023-02-16T16:28:54.934Z,77.53
2023-02-16T16:31:42.493Z,82.63
2023-02-16T16:34:32.088Z,79.93
2023-02-16T16:37:02.565Z,77.67
2023-02-16T16:39:32.158Z,86.70
2023-02-16T16:42:22.188Z,83.50
2023-02-16T16:44:59.814Z,82.80
2023-02-16T16:47:31.382Z,80.73
2023-02-16T16:50:03.060Z,78.73
2023-02-16T16:52:43.046Z,84.67
2023-02-16T16:55:29.171Z,83.90
2023-02-16T16:57:58.737Z,88.10
2023-02-16T17:00:30.759Z,99.13
2023-02-16T17:02:58.923Z,91.67
2023-02-16T17:05:28.299Z,93.07
2023-02-16T17:07:56.237Z,89.40
2023-02-16T17:10:24.844Z,98.17
2023-02-16T17:12:56.598Z,88.80
2023-02-16T17:15:44.752Z,91.93
2023-02-16T17:18:16.806Z,97.77
2023-02-16T17:20:46.898Z,94.93
2023-02-16T17:23:17.136Z,101.67
2023-02-16T17:25:45.642Z,104.23
2023-02-16T17:28:15.496Z,105.63
2023-02-16T17:30:44.065Z,112.57
2023-02-16T17:33:12.436Z,105.57
2023-02-16T17:35:43.204Z,104.10
2023-02-16T17:38:14.792Z,105.83
2023-02-16T17:40:44.043Z,105.53
2023-02-16T17:43:14.723Z,113.77
2023-02-16T17:45:43.603Z,125.40
2023-02-16T17:48:17.095Z,138.20
2023-02-16T17:50:45.186Z,136.97
2023-02-16T17:53:15.776Z,122.73
2023-02-16T17:55:44.834Z,121.80
2023-02-16T17:58:13.214Z,116.97
2023-02-16T18:00:42.188Z,120.73
2023-02-16T18:03:10.640Z,114.67
2023-02-16T18:05:38.960Z,115.30
2023-02-16T18:08:08.103Z,110.83
2023-02-16T18:10:39.976Z,112.97
2023-02-16T18:13:09.495Z,110.63
2023-02-16T18:15:37.767Z,110.07
2023-02-16T18:18:06.278Z,109.50
2023-02-16T18:20:34.437Z,103.80
2023-02-16T18:23:02.533Z,106.07
2023-02-16T18:25:30.462Z,114.63
2023-02-16T18:28:00.096Z,102.33
2023-02-16T18:30:28.781Z,98.27
2023-02-16T18:32:57.109Z,112.47
2023-02-16T18:35:25.370Z,99.50
2023-02-16T18:37:53.280Z,100.20
2023-02-16T18:40:22.356Z,105.07
2023-02-16T18:42:50.331Z,103.37
2023-02-16T18:45:19.911Z,105.23
2023-02-16T18:47:48.014Z,104.13
2023-02-16T18:50:16.445Z,99.80
2023-02-16T18:52:48.557Z,92.30
2023-02-16T18:55:16.980Z,108.90
2023-02-16T18:57:44.968Z,109.00
2023-02-16T19:00:15.298Z,115.17
2023-02-16T19:02:44.930Z,113.60
2023-02-16T19:05:13.296Z,103.90
2023-02-16T19:07:41.565Z,105.50
2023-02-16T19:10:12.003Z,108.33
2023-02-16T19:12:40.919Z,100.87
2023-02-16T19:15:10.129Z,94.47
2023-02-16T19:17:38.965Z,101.13
2023-02-16T19:20:12.243Z,108.83
2023-02-16T19:22:40.332Z,99.27
2023-02-16T19:25:09.037Z,94.23
2023-02-16T19:27:37.350Z,102.53
2023-02-16T19:30:06.410Z,114.27
2023-02-16T19:32:35.085Z,106.57
2023-02-16T19:35:03.670Z,105.07
2023-02-16T19:37:33.218Z,103.60
2023-02-16T19:40:01.194Z,104.27
2023-02-16T19:42:29.368Z,106.20
2023-02-16T19:44:57.275Z,107.63
2023-02-16T19:47:25.366Z,101.97
2023-02-16T19:49:53.261Z,100.47
2023-02-16T19:52:21.358Z,105.87
2023-02-16T19:54:50.748Z,99.57
2023-02-16T19:57:18.906Z,109.57
2023-02-16T19:59:46.927Z,103.37
2023-02-16T20:02:15.662Z,111.10
2023-02-16T20:04:43.915Z,104.00
2023-02-16T20:07:12.526Z,112.40
2023-02-16T20:09:40.606Z,112.53
2023-02-16T20:12:10.298Z,104.27
2023-02-16T20:14:38.486Z,122.77
2023-02-16T20:17:06.738Z,118.87
2023-02-16T20:19:34.912Z,113.43
2023-02-16T20:22:03.389Z,118.53
2023-02-16T20:24:31.500Z,104.37
2023-02-16T20:27:04.198Z,104.77
2023-02-16T20:29:33.682Z,119.50
2023-02-16T20:32:01.787Z,107.03
2023-02-16T20:34:29.985Z,106.10
2023-02-16T20:36:58.504Z,106.50
2023-02-16T20:39:26.452Z,95.60
2023-02-16T20:41:54.382Z,105.83
2023-02-16T20:44:23.546Z,103.53
2023-02-16T20:46:53.017Z,103.57
2023-02-16T20:49:21.144Z,119.40
2023-02-16T20:51:49.175Z,113.40
2023-02-16T20:54:17.326Z,117.60
2023-02-16T20:56:45.340Z,117.90
2023-02-16T20:59:13.721Z,126.43
2023-02-16T21:01:43.769Z,124.17
2023-02-16T21:04:14.549Z,119.93
2023-02-16T21:06:42.833Z,110.73
2023-02-16T21:09:11.843Z,120.47
2023-02-16T21:11:41.014Z,120.70
2023-02-16T21:14:11.155Z,119.10
2023-02-16T21:16:41.040Z,115.87
2023-02-16T21:19:17.549Z,114.33
2023-02-16T21:21:52.832Z,119.40
2023-02-16T21:24:20.832Z,122.60
2023-02-16T21:26:48.859Z,129.77
2023-02-16T21:29:16.795Z,128.30
2023-02-16T21:31:45.122Z,123.93
2023-02-16T21:34:13.157Z,122.63
2023-02-16T21:36:41.176Z,123.07
2023-02-16T21:39:10.433Z,115.47
2023-02-16T21:41:38.017Z,113.00
2023-02-16T21:44:08.190Z,119.37
2023-02-16T21:46:37.977Z,125.80
2023-02-16T21:49:06.790Z,112.77
2023-02-16T21:51:39.453Z,120.17
2023-02-16T21:54:08.097Z,116.67
2023-02-16T21:56:39.080Z,117.00
2023-02-16T21:59:08.861Z,112.27
2023-02-16T22:01:39.315Z,112.70
2023-02-16T22:04:07.598Z,115.13
2023-02-16T22:06:38.233Z,113.83
2023-02-16T22:09:08.658Z,104.27
2023-02-16T22:11:38.610Z,105.30
2023-02-16T22:14:06.701Z,110.77
2023-02-16T22:16:36.207Z,113.43
2023-02-16T22:19:07.534Z,106.63
2023-02-16T22:21:36.824Z,122.53
2023-02-16T22:24:05.243Z,109.07
2023-02-16T22:26:35.509Z,126.43
2023-02-16T22:29:06.656Z,123.10
2023-02-16T22:31:35.038Z,117.13
2023-02-16T22:34:04.832Z,123.17
2023-02-16T22:36:33.360Z,125.10
2023-02-16T22:39:01.402Z,110.97
2023-02-16T22:41:29.459Z,108.07
2023-02-16T22:43:59.146Z,110.17
2023-02-16T22:46:30.367Z,116.00
2023-02-16T22:48:59.189Z,127.43
2023-02-16T22:51:29.219Z,124.63
2023-02-16T22:53:59.684Z,123.37
2023-02-16T22:56:29.706Z,121.13
2023-02-16T22:58:58.402Z,117.90
2023-02-16T23:01:30.467Z,117.93
2023-02-16T23:04:00.260Z,116.33
2023-02-16T23:06:30.413Z,123.97
2023-02-16T23:09:00.819Z,123.23
2023-02-16T23:11:29.633Z,127.60
2023-02-16T23:13:57.745Z,124.77
2023-02-16T23:16:26.935Z,129.27
2023-02-16T23:18:57.373Z,127.80
2023-02-16T23:21:27.244Z,138.73
2023-02-16T23:23:56.415Z,135.00
2023-02-16T23:26:27.093Z,123.73
2023-02-16T23:28:57.570Z,120.97
2023-02-16T23:31:25.771Z,119.80
2023-02-16T23:33:53.831Z,128.07
2023-02-16T23:36:23.195Z,119.50
2023-02-16T23:38:51.273Z,123.73
2023-02-16T23:41:19.624Z,132.53
2023-02-16T23:43:47.532Z,128.00
2023-02-16T23:46:15.677Z,132.27
2023-02-16T23:48:43.694Z,127.23
2023-02-16T23:51:12.244Z,127.67
2023-02-16T23:53:41.594Z,119.17
2023-02-16T23:56:12.975Z,117.97
2023-02-16T23:58:44.991Z,116.17
